createdAt,value
2022-10-06T00:00:22.023Z,74.53
2022-10-06T00:05:24.686Z,74.43
2022-10-06T00:10:28.841Z,74.48
2022-10-06T00:15:32.948Z,74.34
2022-10-06T00:20:35.840Z,74.37
2022-10-06T00:25:40.012Z,74.46
2022-10-06T00:30:42.753Z,74.35
2022-10-06T00:35:46.053Z,74.46
2022-10-06T00:40:51.702Z,74.87
2022-10-06T00:45:54.489Z,75.06
2022-10-06T00:50:58.452Z,74.98
2022-10-06T00:56:02.558Z,75.32
2022-10-06T01:01:05.395Z,75.62
2022-10-06T01:06:08.795Z,75.17
2022-10-06T01:11:14.106Z,75.44
2022-10-06T01:16:23.208Z,75.47
2022-10-06T01:21:29.560Z,75.30
2022-10-06T01:26:34.959Z,75.30
2022-10-06T01:31:38.056Z,75.18
2022-10-06T01:36:42.143Z,75.22
2022-10-06T01:41:47.870Z,75.36
2022-10-06T01:46:51.351Z,75.40
2022-10-06T01:51:54.219Z,75.70
2022-10-06T01:56:58.251Z,75.86
2022-10-06T02:02:02.119Z,76.00
2022-10-06T02:07:05.390Z,76.35
2022-10-06T02:12:17.768Z,76.27
2022-10-06T02:17:21.118Z,76.48
2022-10-06T02:22:23.862Z,77.08
2022-10-06T02:27:28.134Z,76.93
2022-10-06T02:32:35.320Z,76.79
2022-10-06T02:37:38.280Z,76.80
2022-10-06T02:42:43.753Z,76.90
2022-10-06T02:47:46.495Z,76.81
2022-10-06T02:52:49.239Z,76.90
2022-10-06T02:57:55.124Z,77.08
2022-10-06T03:02:57.869Z,76.87
2022-10-06T03:08:00.570Z,76.95
2022-10-06T03:13:04.728Z,76.84
2022-10-06T03:18:07.747Z,76.92
2022-10-06T03:23:13.561Z,76.53
2022-10-06T03:28:18.519Z,76.28
2022-10-06T03:33:21.544Z,75.88
2022-10-06T03:38:24.272Z,76.02
2022-10-06T03:43:28.992Z,75.89
2022-10-06T03:48:33.468Z,75.79
2022-10-06T03:53:36.707Z,75.77
2022-10-06T03:58:42.096Z,75.78
2022-10-06T04:03:45.324Z,75.86
2022-10-06T04:08:49.934Z,75.88
2022-10-06T04:13:56.782Z,75.92
2022-10-06T04:19:01.139Z,76.09
2022-10-06T04:24:04.558Z,76.03
2022-10-06T04:29:09.059Z,76.14
2022-10-06T04:34:13.499Z,76.04
2022-10-06T04:39:17.379Z,76.10
2022-10-06T04:44:23.268Z,76.23
2022-10-06T04:49:26.554Z,76.29
2022-10-06T04:54:33.669Z,76.59
2022-10-06T04:59:56.336Z,76.70
2022-10-06T05:05:00.718Z,76.81
2022-10-06T05:10:03.625Z,76.94
2022-10-06T05:15:10.626Z,76.94
2022-10-06T05:20:13.410Z,77.25
2022-10-06T05:25:16.308Z,77.58
2022-10-06T05:30:20.999Z,77.72
2022-10-06T05:35:24.989Z,77.90
2022-10-06T05:40:28.360Z,77.97
2022-10-06T05:45:32.761Z,78.17
2022-10-06T05:50:35.509Z,78.32
2022-10-06T05:55:38.358Z,78.73
2022-10-06T06:00:42.477Z,79.18
2022-10-06T06:05:45.894Z,79.33
2022-10-06T06:10:48.854Z,79.44
2022-10-06T06:16:02.084Z,79.87
2022-10-06T06:21:07.697Z,79.71
2022-10-06T06:26:11.884Z,80.05
2022-10-06T06:31:22.401Z,80.37
2022-10-06T06:36:28.303Z,80.88
2022-10-06T06:41:32.961Z,80.90
2022-10-06T06:46:49.133Z,80.81
2022-10-06T06:51:54.488Z,80.57
2022-10-06T06:57:00.441Z,80.53
2022-10-06T07:02:04.803Z,80.19
2022-10-06T07:07:12.186Z,80.60
2022-10-06T07:12:15.005Z,80.74
2022-10-06T07:17:38.000Z,80.45
2022-10-06T07:22:58.063Z,80.18
2022-10-06T07:28:00.882Z,79.84
2022-10-06T07:33:09.561Z,79.58
2022-10-06T07:38:13.766Z,79.76
2022-10-06T07:43:23.291Z,79.46
2022-10-06T07:48:28.676Z,79.54
2022-10-06T07:53:39.053Z,79.25
2022-10-06T07:58:58.691Z,78.48
2022-10-06T08:04:06.665Z,77.64
2022-10-06T08:09:09.725Z,77.31
2022-10-06T08:14:15.072Z,76.90
2022-10-06T08:19:19.622Z,76.38
2022-10-06T08:24:22.271Z,76.06
2022-10-06T08:29:25.009Z,75.66
2022-10-06T08:34:29.019Z,75.43
2022-10-06T08:39:31.837Z,74.88
2022-10-06T08:44:40.607Z,74.36
2022-10-06T08:49:46.239Z,73.73
2022-10-06T08:54:54.029Z,73.10
2022-10-06T08:59:59.419Z,72.79
2022-10-06T09:05:05.541Z,72.52
2022-10-06T09:10:23.146Z,72.47
2022-10-06T09:15:32.046Z,72.32
2022-10-06T09:20:39.273Z,72.17
2022-10-06T09:25:41.961Z,71.67
2022-10-06T09:30:44.696Z,71.48
2022-10-06T09:36:06.304Z,71.12
2022-10-06T09:41:09.131Z,70.46
2022-10-06T09:46:22.551Z,70.59
2022-10-06T09:51:27.715Z,70.13
2022-10-06T09:56:30.666Z,69.58
2022-10-06T10:01:33.345Z,68.55
2022-10-06T10:06:37.390Z,67.43
2022-10-06T10:11:57.484Z,67.74
2022-10-06T10:17:08.758Z,67.74
2022-10-06T10:22:23.310Z,67.90
2022-10-06T10:27:31.674Z,68.29
2022-10-06T10:32:54.780Z,67.13
2022-10-06T10:38:01.994Z,66.42
2022-10-06T10:43:22.555Z,66.37
2022-10-06T10:48:31.478Z,65.10
2022-10-06T10:53:46.798Z,64.17
2022-10-06T10:58:51.494Z,63.92
2022-10-06T11:03:57.435Z,63.91
2022-10-06T11:09:04.805Z,62.12
2022-10-06T11:14:11.066Z,58.63
2022-10-06T11:19:23.025Z,51.41
2022-10-06T11:24:33.091Z,48.32
2022-10-06T11:29:42.018Z,41.98
2022-10-06T11:34:45.849Z,34.43
2022-10-06T11:39:58.632Z,34.08
2022-10-06T11:45:04.639Z,38.59
2022-10-06T11:50:33.162Z,44.99
2022-10-06T11:55:37.371Z,48.76
2022-10-06T12:00:48.196Z,45.13
2022-10-06T12:05:56.286Z,35.21
2022-10-06T12:11:00.787Z,30.78
2022-10-06T12:21:47.263Z,30.84
2022-10-06T12:26:56.534Z,37.14
2022-10-06T12:32:03.979Z,39.96
2022-10-06T12:37:44.435Z,40.98
2022-10-06T12:42:48.547Z,43.30
2022-10-06T12:47:51.330Z,42.58
2022-10-06T12:52:54.608Z,46.43
2022-10-06T12:57:59.115Z,45.44
2022-10-06T13:03:03.316Z,44.52
2022-10-06T13:08:07.786Z,46.79
2022-10-06T13:13:23.431Z,48.52
2022-10-06T13:18:26.373Z,47.18
2022-10-06T13:23:30.917Z,46.96
2022-10-06T13:28:49.128Z,47.48
2022-10-06T13:33:53.649Z,47.24
2022-10-06T13:38:56.506Z,46.63
2022-10-06T13:44:03.557Z,46.54
2022-10-06T13:49:14.616Z,46.55
2022-10-06T13:54:23.541Z,46.51
2022-10-06T13:59:38.461Z,47.49
2022-10-06T14:04:41.122Z,48.47
2022-10-06T14:09:44.037Z,48.84
2022-10-06T14:14:49.233Z,49.21
2022-10-06T14:19:52.081Z,48.63
2022-10-06T14:24:54.971Z,49.07
2022-10-06T14:29:59.166Z,48.73
2022-10-06T14:35:02.422Z,48.59
2022-10-06T14:40:10.138Z,48.48
2022-10-06T14:45:17.367Z,48.04
2022-10-06T14:50:20.132Z,47.75
2022-10-06T14:55:22.730Z,46.82
2022-10-06T15:00:28.940Z,45.46
2022-10-06T15:05:31.716Z,45.50
2022-10-06T15:10:36.013Z,40.82
2022-10-06T15:15:40.051Z,38.61
2022-10-06T15:20:42.712Z,33.87
2022-10-06T15:26:10.280Z,31.80
2022-10-06T15:31:14.486Z,30.55
2022-10-06T15:36:19.008Z,32.55
2022-10-06T15:41:22.216Z,35.60
2022-10-06T15:46:31.682Z,41.24
2022-10-06T15:51:37.176Z,44.91
2022-10-06T15:56:40.170Z,46.04
2022-10-06T16:01:47.070Z,47.31
2022-10-06T16:06:54.095Z,47.63
2022-10-06T16:11:57.704Z,48.35
2022-10-06T16:17:02.949Z,49.13
2022-10-06T16:22:06.931Z,49.64
2022-10-06T16:27:12.724Z,49.77
2022-10-06T16:32:17.213Z,50.42
2022-10-06T16:37:20.019Z,51.18
2022-10-06T16:42:22.682Z,51.82
2022-10-06T16:47:27.099Z,52.43
2022-10-06T16:52:29.858Z,52.81
2022-10-06T16:57:32.683Z,53.08
2022-10-06T17:02:38.632Z,53.85
2022-10-06T17:07:41.389Z,54.26
2022-10-06T17:12:44.042Z,54.28
2022-10-06T17:17:48.054Z,54.80
2022-10-06T17:22:51.362Z,55.39
2022-10-06T17:27:54.140Z,55.67
2022-10-06T17:32:58.388Z,55.72
2022-10-06T17:38:02.760Z,56.22
2022-10-06T17:43:05.475Z,56.91
2022-10-06T17:48:10.612Z,57.26
2022-10-06T17:53:14.671Z,57.59
2022-10-06T17:58:18.816Z,58.03
2022-10-06T18:03:26.502Z,58.22
2022-10-06T18:08:31.265Z,58.33
2022-10-06T18:13:33.977Z,58.58
2022-10-06T18:18:38.801Z,58.95
2022-10-06T18:23:43.397Z,59.57
2022-10-06T18:28:48.031Z,59.37
2022-10-06T18:39:15.965Z,60.01
2022-10-06T18:44:39.064Z,60.57
2022-10-06T18:49:43.034Z,60.64
2022-10-06T18:54:46.365Z,60.84
2022-10-06T18:59:49.236Z,60.99
2022-10-06T19:04:53.387Z,61.29
2022-10-06T19:09:56.010Z,61.67
2022-10-06T19:14:58.925Z,61.75
2022-10-06T19:20:02.940Z,61.99
2022-10-06T19:25:06.388Z,61.94
2022-10-06T19:30:09.437Z,62.19
2022-10-06T19:35:13.590Z,62.41
2022-10-06T19:40:16.426Z,62.54
2022-10-06T19:45:20.598Z,62.64
2022-10-06T19:50:25.124Z,63.04
2022-10-06T19:55:28.710Z,62.98
2022-10-06T20:00:31.593Z,63.28
2022-10-06T20:05:38.311Z,63.41
2022-10-06T20:10:40.939Z,63.43
2022-10-06T20:15:43.587Z,63.63
2022-10-06T20:20:58.718Z,63.98
2022-10-06T20:26:11.875Z,64.01
2022-10-06T20:31:19.277Z,64.33
2022-10-06T20:36:23.552Z,64.49
2022-10-06T20:41:26.538Z,64.64
2022-10-06T20:46:31.317Z,64.65
2022-10-06T20:51:36.924Z,64.68
2022-10-06T20:56:39.702Z,64.91
2022-10-06T21:01:42.426Z,64.93
2022-10-06T21:06:46.763Z,65.00
2022-10-06T21:11:49.587Z,65.18
2022-10-06T21:16:52.823Z,65.26
2022-10-06T21:21:56.823Z,65.29
2022-10-06T21:27:00.413Z,65.49
2022-10-06T21:32:03.082Z,65.81
2022-10-06T21:37:07.129Z,65.99
2022-10-06T21:42:10.056Z,65.97
2022-10-06T21:47:12.805Z,66.23
2022-10-06T21:52:16.896Z,66.26
2022-10-06T21:57:19.570Z,66.30
2022-10-06T22:02:22.277Z,66.38
2022-10-06T22:07:26.317Z,66.38
2022-10-06T22:12:28.937Z,66.81
2022-10-06T22:17:31.605Z,66.97
2022-10-06T22:22:35.621Z,66.90
2022-10-06T22:27:38.262Z,67.08
2022-10-06T22:32:40.917Z,66.94
2022-10-06T22:37:45.126Z,67.25
2022-10-06T22:42:48.061Z,67.42
2022-10-06T22:47:50.789Z,67.57
2022-10-06T22:52:54.844Z,67.69
2022-10-06T22:57:57.525Z,67.76
2022-10-06T23:03:00.305Z,67.71
2022-10-06T23:08:05.382Z,67.75
2022-10-06T23:13:08.114Z,67.82
2022-10-06T23:18:10.852Z,67.79
2022-10-06T23:23:14.827Z,68.28
2022-10-06T23:28:17.664Z,68.06
2022-10-06T23:33:20.739Z,68.30
2022-10-06T23:38:24.792Z,68.41
2022-10-06T23:43:27.596Z,68.86
2022-10-06T23:48:30.828Z,69.00
2022-10-06T23:53:35.931Z,69.21
2022-10-06T23:58:38.749Z,69.20
